sensor_id;sensor_type;location;lat;lon;timestamp;pressure;altitude;pressure_sealevel;temperature;humidity
40730;BME280;26418;50.070;8.436;2023-11-19T00:00:34;99782.16;;;6.95;100.00
40730;BME280;26418;50.070;8.436;2023-11-19T00:02:59;99765.22;;;6.95;100.00
40730;BME280;26418;50.070;8.436;2023-11-19T00:05:28;99771.66;;;6.99;100.00
40730;BME280;26418;50.070;8.436;2023-11-19T00:07:54;99777.81;;;6.99;100.00
40730;BME280;26418;50.070;8.436;2023-11-19T00:10:19;99789.91;;;7.02;100.00
40730;BME280;26418;50.070;8.436;2023-11-19T00:12:47;99796.09;;;7.02;100.00
40730;BME280;26418;50.070;8.436;2023-11-19T00:15:13;99788.81;;;7.03;100.00
40730;BME280;26418;50.070;8.436;2023-11-19T00:17:40;99777.63;;;6.90;100.00
40730;BME280;26418;50.070;8.436;2023-11-19T00:20:06;99799.88;;;7.01;100.00
40730;BME280;26418;50.070;8.436;2023-11-19T00:22:32;99793.16;;;6.99;100.00
40730;BME280;26418;50.070;8.436;2023-11-19T00:24:58;99784.81;;;7.00;100.00
40730;BME280;26418;50.070;8.436;2023-11-19T00:27:23;99789.63;;;7.03;100.00
40730;BME280;26418;50.070;8.436;2023-11-19T00:29:48;99778.34;;;7.01;100.00
40730;BME280;26418;50.070;8.436;2023-11-19T00:32:14;99783.19;;;7.04;100.00
40730;BME280;26418;50.070;8.436;2023-11-19T00:34:40;99794.19;;;7.03;100.00
40730;BME280;26418;50.070;8.436;2023-11-19T00:37:06;99793.34;;;7.13;100.00
40730;BME280;26418;50.070;8.436;2023-11-19T00:39:32;99772.63;;;7.13;100.00
40730;BME280;26418;50.070;8.436;2023-11-19T00:41:57;99746.56;;;7.08;100.00
40730;BME280;26418;50.070;8.436;2023-11-19T00:44:22;99755.09;;;7.16;100.00
40730;BME280;26418;50.070;8.436;2023-11-19T00:46:48;99767.78;;;7.10;100.00
40730;BME280;26418;50.070;8.436;2023-11-19T00:49:14;99780.41;;;7.15;100.00
40730;BME280;26418;50.070;8.436;2023-11-19T00:51:40;99777.94;;;7.18;100.00
40730;BME280;26418;50.070;8.436;2023-11-19T00:54:06;99770.94;;;7.22;100.00
40730;BME280;26418;50.070;8.436;2023-11-19T00:56:31;99760.41;;;7.26;100.00
40730;BME280;26418;50.070;8.436;2023-11-19T00:58:57;99745.91;;;7.22;100.00
40730;BME280;26418;50.070;8.436;2023-11-19T01:01:22;99746.97;;;7.26;100.00
40730;BME280;26418;50.070;8.436;2023-11-19T01:03:48;99750.72;;;7.30;100.00
40730;BME280;26418;50.070;8.436;2023-11-19T01:06:13;99740.50;;;7.27;100.00
40730;BME280;26418;50.070;8.436;2023-11-19T01:08:42;99714.41;;;7.28;100.00
40730;BME280;26418;50.070;8.436;2023-11-19T01:11:19;99716.28;;;7.27;100.00
40730;BME280;26418;50.070;8.436;2023-11-19T01:13:46;99711.22;;;7.26;100.00
40730;BME280;26418;50.070;8.436;2023-11-19T01:16:11;99694.88;;;7.17;100.00
40730;BME280;26418;50.070;8.436;2023-11-19T01:18:38;99712.78;;;7.27;100.00
40730;BME280;26418;50.070;8.436;2023-11-19T01:21:04;99700.38;;;7.31;100.00
40730;BME280;26418;50.070;8.436;2023-11-19T01:23:30;99693.41;;;7.30;100.00
40730;BME280;26418;50.070;8.436;2023-11-19T01:25:55;99719.50;;;7.29;100.00
40730;BME280;26418;50.070;8.436;2023-11-19T01:28:21;99717.91;;;7.28;100.00
40730;BME280;26418;50.070;8.436;2023-11-19T01:30:46;99706.06;;;7.29;100.00
40730;BME280;26418;50.070;8.436;2023-11-19T01:33:12;99712.28;;;7.24;100.00
40730;BME280;26418;50.070;8.436;2023-11-19T01:35:37;99724.59;;;7.31;100.00
40730;BME280;26418;50.070;8.436;2023-11-19T01:38:03;99719.22;;;7.31;100.00
40730;BME280;26418;50.070;8.436;2023-11-19T01:40:28;99709.78;;;7.33;100.00
40730;BME280;26418;50.070;8.436;2023-11-19T01:42:54;99711.44;;;7.29;100.00
40730;BME280;26418;50.070;8.436;2023-11-19T01:45:30;99734.50;;;7.35;100.00
40730;BME280;26418;50.070;8.436;2023-11-19T01:47:57;99731.28;;;7.33;100.00
40730;BME280;26418;50.070;8.436;2023-11-19T01:50:24;99729.69;;;7.32;100.00
40730;BME280;26418;50.070;8.436;2023-11-19T01:52:54;99725.06;;;7.38;100.00
40730;BME280;26418;50.070;8.436;2023-11-19T01:55:24;99711.09;;;7.36;100.00
40730;BME280;26418;50.070;8.436;2023-11-19T01:57:53;99684.47;;;7.34;100.00
40730;BME280;26418;50.070;8.436;2023-11-19T02:00:21;99679.41;;;7.33;100.00
40730;BME280;26418;50.070;8.436;2023-11-19T02:02:47;99674.50;;;7.35;100.00
40730;BME280;26418;50.070;8.436;2023-11-19T02:05:13;99656.78;;;7.34;100.00
40730;BME280;26418;50.070;8.436;2023-11-19T02:07:39;99660.28;;;7.34;100.00
40730;BME280;26418;50.070;8.436;2023-11-19T02:10:05;99654.59;;;7.36;100.00
40730;BME280;26418;50.070;8.436;2023-11-19T02:12:32;99646.53;;;7.36;100.00
40730;BME280;26418;50.070;8.436;2023-11-19T02:15:02;99643.84;;;7.36;100.00
40730;BME280;26418;50.070;8.436;2023-11-19T02:17:29;99645.41;;;7.42;100.00
40730;BME280;26418;50.070;8.436;2023-11-19T02:19:57;99634.69;;;7.37;100.00
40730;BME280;26418;50.070;8.436;2023-11-19T02:22:24;99649.66;;;7.43;100.00
40730;BME280;26418;50.070;8.436;2023-11-19T02:24:52;99651.81;;;7.46;100.00
40730;BME280;26418;50.070;8.436;2023-11-19T02:30:04;99653.13;;;7.49;100.00
40730;BME280;26418;50.070;8.436;2023-11-19T02:32:34;99654.72;;;7.50;100.00
40730;BME280;26418;50.070;8.436;2023-11-19T02:34:59;99650.16;;;7.50;100.00
40730;BME280;26418;50.070;8.436;2023-11-19T02:37:25;99653.34;;;7.52;100.00
40730;BME280;26418;50.070;8.436;2023-11-19T02:39:51;99647.97;;;7.52;100.00
40730;BME280;26418;50.070;8.436;2023-11-19T02:42:16;99632.66;;;7.48;100.00
40730;BME280;26418;50.070;8.436;2023-11-19T02:44:45;99634.78;;;7.51;100.00
40730;BME280;26418;50.070;8.436;2023-11-19T02:47:11;99621.97;;;7.43;100.00
40730;BME280;26418;50.070;8.436;2023-11-19T02:49:37;99629.72;;;7.49;100.00
40730;BME280;26418;50.070;8.436;2023-11-19T02:52:03;99628.91;;;7.49;100.00
40730;BME280;26418;50.070;8.436;2023-11-19T02:54:31;99631.03;;;7.52;100.00
40730;BME280;26418;50.070;8.436;2023-11-19T02:57:00;99622.94;;;7.52;100.00
40730;BME280;26418;50.070;8.436;2023-11-19T02:59:29;99628.34;;;7.52;100.00
40730;BME280;26418;50.070;8.436;2023-11-19T03:02:04;99639.31;;;7.55;100.00
40730;BME280;26418;50.070;8.436;2023-11-19T03:04:32;99633.88;;;7.61;100.00
40730;BME280;26418;50.070;8.436;2023-11-19T03:06:58;99602.28;;;7.47;100.00
40730;BME280;26418;50.070;8.436;2023-11-19T03:09:24;99616.13;;;7.60;100.00
40730;BME280;26418;50.070;8.436;2023-11-19T03:11:50;99618.31;;;7.58;100.00
40730;BME280;26418;50.070;8.436;2023-11-19T03:14:15;99619.31;;;7.62;100.00
40730;BME280;26418;50.070;8.436;2023-11-19T03:16:45;99605.94;;;7.57;100.00
40730;BME280;26418;50.070;8.436;2023-11-19T03:19:11;99612.34;;;7.61;100.00
40730;BME280;26418;50.070;8.436;2023-11-19T03:21:37;99618.53;;;7.61;100.00
40730;BME280;26418;50.070;8.436;2023-11-19T03:24:03;99611.84;;;7.59;100.00
40730;BME280;26418;50.070;8.436;2023-11-19T03:26:28;99606.16;;;7.60;100.00
40730;BME280;26418;50.070;8.436;2023-11-19T03:28:54;99619.06;;;7.63;100.00
40730;BME280;26418;50.070;8.436;2023-11-19T03:31:22;99616.59;;;7.67;100.00
40730;BME280;26418;50.070;8.436;2023-11-19T03:33:48;99620.88;;;7.68;100.00
40730;BME280;26418;50.070;8.436;2023-11-19T03:36:13;99614.38;;;7.69;100.00
40730;BME280;26418;50.070;8.436;2023-11-19T03:38:39;99600.78;;;7.60;100.00
40730;BME280;26418;50.070;8.436;2023-11-19T03:41:14;99605.31;;;7.65;100.00
40730;BME280;26418;50.070;8.436;2023-11-19T03:43:40;99609.38;;;7.62;100.00
40730;BME280;26418;50.070;8.436;2023-11-19T03:46:21;99603.19;;;7.62;100.00
40730;BME280;26418;50.070;8.436;2023-11-19T03:48:48;99615.50;;;7.68;100.00
40730;BME280;26418;50.070;8.436;2023-11-19T03:51:14;99620.81;;;7.73;100.00
40730;BME280;26418;50.070;8.436;2023-11-19T03:53:44;99610.84;;;7.74;100.00
40730;BME280;26418;50.070;8.436;2023-11-19T03:56:10;99602.03;;;7.68;100.00
40730;BME280;26418;50.070;8.436;2023-11-19T03:58:36;99597.16;;;7.70;100.00
40730;BME280;26418;50.070;8.436;2023-11-19T04:01:10;99608.38;;;7.77;100.00
40730;BME280;26418;50.070;8.436;2023-11-19T04:03:37;99603.63;;;7.69;100.00
40730;BME280;26418;50.070;8.436;2023-11-19T04:06:02;99607.06;;;7.75;100.00
40730;BME280;26418;50.070;8.436;2023-11-19T04:08:29;99599.19;;;7.78;100.00
40730;BME280;26418;50.070;8.436;2023-11-19T04:10:54;99594.34;;;7.80;100.00
40730;BME280;26418;50.070;8.436;2023-11-19T04:13:20;99587.44;;;7.74;100.00
40730;BME280;26418;50.070;8.436;2023-11-19T04:15:46;99588.72;;;7.77;100.00
40730;BME280;26418;50.070;8.436;2023-11-19T04:18:11;99597.03;;;7.80;100.00
40730;BME280;26418;50.070;8.436;2023-11-19T04:20:37;99597.03;;;7.80;100.00
40730;BME280;26418;50.070;8.436;2023-11-19T04:23:02;99592.72;;;7.79;100.00
40730;BME280;26418;50.070;8.436;2023-11-19T04:25:28;99603.44;;;7.84;100.00
40730;BME280;26418;50.070;8.436;2023-11-19T04:27:54;99596.16;;;7.85;100.00
40730;BME280;26418;50.070;8.436;2023-11-19T04:30:19;99600.47;;;7.86;100.00
40730;BME280;26418;50.070;8.436;2023-11-19T04:32:45;99574.41;;;7.81;100.00
40730;BME280;26418;50.070;8.436;2023-11-19T04:35:10;99569.31;;;7.80;100.00
40730;BME280;26418;50.070;8.436;2023-11-19T04:37:36;99568.06;;;7.91;100.00
40730;BME280;26418;50.070;8.436;2023-11-19T04:40:03;99566.97;;;7.92;100.00
40730;BME280;26418;50.070;8.436;2023-11-19T04:42:29;99563.50;;;7.92;100.00
40730;BME280;26418;50.070;8.436;2023-11-19T04:44:55;99566.69;;;7.94;100.00
40730;BME280;26418;50.070;8.436;2023-11-19T04:47:21;99567.28;;;7.91;100.00
40730;BME280;26418;50.070;8.436;2023-11-19T04:49:46;99565.59;;;7.95;100.00
40730;BME280;26418;50.070;8.436;2023-11-19T04:52:12;99564.06;;;7.89;100.00
40730;BME280;26418;50.070;8.436;2023-11-19T04:54:41;99577.09;;;8.00;100.00
40730;BME280;26418;50.070;8.436;2023-11-19T04:57:08;99584.59;;;8.03;100.00
40730;BME280;26418;50.070;8.436;2023-11-19T04:59:36;99580.31;;;8.02;100.00
40730;BME280;26418;50.070;8.436;2023-11-19T05:02:02;99578.63;;;8.07;100.00
40730;BME280;26418;50.070;8.436;2023-11-19T05:04:29;99578.34;;;8.08;100.00
40730;BME280;26418;50.070;8.436;2023-11-19T05:06:55;99579.72;;;8.06;100.00
40730;BME280;26418;50.070;8.436;2023-11-19T05:09:20;99575.22;;;8.01;100.00
40730;BME280;26418;50.070;8.436;2023-11-19T05:11:46;99573.00;;;8.03;100.00
40730;BME280;26418;50.070;8.436;2023-11-19T05:14:11;99566.84;;;8.02;100.00
40730;BME280;26418;50.070;8.436;2023-11-19T05:16:39;99570.47;;;8.12;100.00
40730;BME280;26418;50.070;8.436;2023-11-19T05:19:05;99576.88;;;8.16;100.00
40730;BME280;26418;50.070;8.436;2023-11-19T05:21:30;99571.22;;;8.17;100.00
40730;BME280;26418;50.070;8.436;2023-11-19T05:23:56;99584.47;;;8.14;100.00
40730;BME280;26418;50.070;8.436;2023-11-19T05:26:23;99593.25;;;8.19;100.00
40730;BME280;26418;50.070;8.436;2023-11-19T05:28:49;99592.97;;;8.21;100.00
40730;BME280;26418;50.070;8.436;2023-11-19T05:31:16;99589.47;;;8.21;100.00
40730;BME280;26418;50.070;8.436;2023-11-19T05:33:42;99585.16;;;8.19;100.00
40730;BME280;26418;50.070;8.436;2023-11-19T05:36:08;99572.00;;;8.18;100.00
40730;BME280;26418;50.070;8.436;2023-11-19T05:38:35;99561.09;;;8.09;100.00
40730;BME280;26418;50.070;8.436;2023-11-19T05:41:00;99558.81;;;8.16;100.00
40730;BME280;26418;50.070;8.436;2023-11-19T05:43:26;99563.41;;;8.16;100.00
40730;BME280;26418;50.070;8.436;2023-11-19T05:45:52;99557.44;;;8.19;100.00
40730;BME280;26418;50.070;8.436;2023-11-19T05:48:17;99566.03;;;8.21;100.00
40730;BME280;26418;50.070;8.436;2023-11-19T05:50:43;99569.22;;;8.23;100.00
40730;BME280;26418;50.070;8.436;2023-11-19T05:53:09;99571.91;;;8.23;100.00
40730;BME280;26418;50.070;8.436;2023-11-19T05:55:38;99566.25;;;8.25;100.00
40730;BME280;26418;50.070;8.436;2023-11-19T05:58:11;99573.50;;;8.24;100.00
40730;BME280;26418;50.070;8.436;2023-11-19T06:00:40;99571.84;;;8.28;100.00
40730;BME280;26418;50.070;8.436;2023-11-19T06:03:07;99568.06;;;8.29;100.00
40730;BME280;26418;50.070;8.436;2023-11-19T06:05:33;99574.31;;;8.25;100.00
40730;BME280;26418;50.070;8.436;2023-11-19T06:07:58;99575.53;;;8.32;100.00
40730;BME280;26418;50.070;8.436;2023-11-19T06:10:24;99572.06;;;8.32;100.00
40730;BME280;26418;50.070;8.436;2023-11-19T06:12:59;99580.13;;;8.32;100.00
40730;BME280;26418;50.070;8.436;2023-11-19T06:15:28;99584.03;;;8.40;100.00
40730;BME280;26418;50.070;8.436;2023-11-19T06:17:54;99586.16;;;8.43;100.00
40730;BME280;26418;50.070;8.436;2023-11-19T06:20:26;99590.47;;;8.44;100.00
40730;BME280;26418;50.070;8.436;2023-11-19T06:22:53;99575.97;;;8.40;100.00
40730;BME280;26418;50.070;8.436;2023-11-19T06:25:19;99587.69;;;8.49;100.00
40730;BME280;26418;50.070;8.436;2023-11-19T06:27:45;99591.72;;;8.52;100.00
40730;BME280;26418;50.070;8.436;2023-11-19T06:30:10;99587.13;;;8.52;100.00
40730;BME280;26418;50.070;8.436;2023-11-19T06:32:37;99587.13;;;8.52;100.00
40730;BME280;26418;50.070;8.436;2023-11-19T06:35:03;99585.22;;;8.53;100.00
40730;BME280;26418;50.070;8.436;2023-11-19T06:37:30;99595.25;;;8.66;100.00
40730;BME280;26418;50.070;8.436;2023-11-19T06:39:55;99590.97;;;8.65;100.00
40730;BME280;26418;50.070;8.436;2023-11-19T06:42:21;99582.66;;;8.61;100.00
40730;BME280;26418;50.070;8.436;2023-11-19T06:44:47;99591.75;;;8.65;100.00
40730;BME280;26418;50.070;8.436;2023-11-19T06:47:12;99579.66;;;8.63;100.00
40730;BME280;26418;50.070;8.436;2023-11-19T06:49:38;99578.16;;;8.57;100.00
40730;BME280;26418;50.070;8.436;2023-11-19T06:52:03;99591.94;;;8.69;100.00
40730;BME280;26418;50.070;8.436;2023-11-19T06:54:29;99589.97;;;8.75;100.00
40730;BME280;26418;50.070;8.436;2023-11-19T06:56:56;99585.78;;;8.69;100.00
40730;BME280;26418;50.070;8.436;2023-11-19T06:59:23;99587.28;;;8.75;100.00
40730;BME280;26418;50.070;8.436;2023-11-19T07:01:49;99584.41;;;8.85;100.00
40730;BME280;26418;50.070;8.436;2023-11-19T07:04:14;99570.81;;;8.76;100.00
40730;BME280;26418;50.070;8.436;2023-11-19T07:06:40;99575.53;;;8.85;100.00
40730;BME280;26418;50.070;8.436;2023-11-19T07:09:08;99587.00;;;8.90;100.00
40730;BME280;26418;50.070;8.436;2023-11-19T07:11:36;99589.44;;;8.92;100.00
40730;BME280;26418;50.070;8.436;2023-11-19T07:14:02;99576.00;;;8.87;100.00
40730;BME280;26418;50.070;8.436;2023-11-19T07:16:28;99584.03;;;8.92;100.00
40730;BME280;26418;50.070;8.436;2023-11-19T07:18:54;99586.03;;;9.00;100.00
40730;BME280;26418;50.070;8.436;2023-11-19T07:21:19;99600.25;;;9.06;100.00
40730;BME280;26418;50.070;8.436;2023-11-19T07:23:45;99600.72;;;9.08;100.00
40730;BME280;26418;50.070;8.436;2023-11-19T07:26:12;99604.81;;;9.05;100.00
40730;BME280;26418;50.070;8.436;2023-11-19T07:28:38;99592.34;;;9.09;100.00
40730;BME280;26418;50.070;8.436;2023-11-19T07:31:05;99606.50;;;9.15;100.00
40730;BME280;26418;50.070;8.436;2023-11-19T07:33:33;99605.41;;;9.16;100.00
40730;BME280;26418;50.070;8.436;2023-11-19T07:35:59;99608.94;;;9.17;100.00
40730;BME280;26418;50.070;8.436;2023-11-19T07:38:24;99597.31;;;9.16;100.00
40730;BME280;26418;50.070;8.436;2023-11-19T07:40:50;99597.63;;;9.15;100.00
40730;BME280;26418;50.070;8.436;2023-11-19T07:43:15;99594.94;;;9.15;100.00
40730;BME280;26418;50.070;8.436;2023-11-19T07:45:41;99599.44;;;9.19;100.00
40730;BME280;26418;50.070;8.436;2023-11-19T07:48:10;99597.25;;;9.21;100.00
40730;BME280;26418;50.070;8.436;2023-11-19T07:50:36;99586.75;;;9.20;100.00
40730;BME280;26418;50.070;8.436;2023-11-19T07:53:01;99599.34;;;9.24;100.00
40730;BME280;26418;50.070;8.436;2023-11-19T07:55:29;99610.25;;;9.47;100.00
40730;BME280;26418;50.070;8.436;2023-11-19T07:57:55;99611.22;;;9.65;100.00
40730;BME280;26418;50.070;8.436;2023-11-19T08:00:21;99618.59;;;9.87;100.00
40730;BME280;26418;50.070;8.436;2023-11-19T08:02:47;99623.16;;;10.01;100.00
40730;BME280;26418;50.070;8.436;2023-11-19T08:05:12;99606.69;;;10.02;100.00
40730;BME280;26418;50.070;8.436;2023-11-19T08:07:38;99622.53;;;10.18;100.00
40730;BME280;26418;50.070;8.436;2023-11-19T08:10:04;99620.41;;;10.29;100.00
40730;BME280;26418;50.070;8.436;2023-11-19T08:12:31;99619.00;;;10.31;100.00
40730;BME280;26418;50.070;8.436;2023-11-19T08:14:56;99595.56;;;10.27;100.00
40730;BME280;26418;50.070;8.436;2023-11-19T08:17:24;99615.47;;;10.45;100.00
40730;BME280;26418;50.070;8.436;2023-11-19T08:19:50;99621.31;;;10.61;100.00
40730;BME280;26418;50.070;8.436;2023-11-19T08:22:15;99623.63;;;10.76;100.00
40730;BME280;26418;50.070;8.436;2023-11-19T08:24:42;99619.25;;;10.89;100.00
40730;BME280;26418;50.070;8.436;2023-11-19T08:27:08;99648.94;;;11.03;100.00
40730;BME280;26418;50.070;8.436;2023-11-19T08:29:34;99651.16;;;11.01;100.00
40730;BME280;26418;50.070;8.436;2023-11-19T08:32:02;99647.47;;;10.97;100.00
40730;BME280;26418;50.070;8.436;2023-11-19T08:34:28;99628.78;;;10.87;100.00
40730;BME280;26418;50.070;8.436;2023-11-19T08:36:54;99617.75;;;10.74;100.00
40730;BME280;26418;50.070;8.436;2023-11-19T08:39:21;99635.88;;;10.74;100.00
40730;BME280;26418;50.070;8.436;2023-11-19T08:41:49;99640.84;;;10.80;100.00
40730;BME280;26418;50.070;8.436;2023-11-19T08:44:16;99633.03;;;10.79;100.00
40730;BME280;26418;50.070;8.436;2023-11-19T08:46:48;99636.59;;;10.88;100.00
40730;BME280;26418;50.070;8.436;2023-11-19T08:49:14;99644.09;;;10.91;100.00
40730;BME280;26418;50.070;8.436;2023-11-19T08:51:39;99647.50;;;11.06;100.00
40730;BME280;26418;50.070;8.436;2023-11-19T08:54:05;99660.84;;;11.25;100.00
40730;BME280;26418;50.070;8.436;2023-11-19T08:56:31;99656.06;;;11.30;100.00
40730;BME280;26418;50.070;8.436;2023-11-19T08:58:58;99652.56;;;11.30;100.00
40730;BME280;26418;50.070;8.436;2023-11-19T09:01:24;99641.94;;;11.42;100.00
40730;BME280;26418;50.070;8.436;2023-11-19T09:03:50;99644.81;;;11.46;100.00
40730;BME280;26418;50.070;8.436;2023-11-19T09:06:15;99631.78;;;11.48;100.00
40730;BME280;26418;50.070;8.436;2023-11-19T09:08:42;99621.44;;;11.50;100.00
40730;BME280;26418;50.070;8.436;2023-11-19T09:11:08;99625.75;;;11.60;100.00
40730;BME280;26418;50.070;8.436;2023-11-19T09:13:34;99621.94;;;11.52;100.00
40730;BME280;26418;50.070;8.436;2023-11-19T09:16:00;99622.25;;;11.59;100.00
40730;BME280;26418;50.070;8.436;2023-11-19T09:18:29;99618.63;;;11.64;100.00
40730;BME280;26418;50.070;8.436;2023-11-19T09:20:54;99620.66;;;11.67;100.00
40730;BME280;26418;50.070;8.436;2023-11-19T09:23:20;99619.25;;;11.70;100.00
40730;BME280;26418;50.070;8.436;2023-11-19T09:25:46;99611.44;;;11.68;100.00
40730;BME280;26418;50.070;8.436;2023-11-19T09:28:11;99602.22;;;11.78;100.00
40730;BME280;26418;50.070;8.436;2023-11-19T09:30:39;99618.31;;;11.83;100.00
40730;BME280;26418;50.070;8.436;2023-11-19T09:33:05;99615.47;;;11.88;100.00
40730;BME280;26418;50.070;8.436;2023-11-19T09:35:31;99617.88;;;11.90;100.00
40730;BME280;26418;50.070;8.436;2023-11-19T09:37:56;99612.13;;;11.91;100.00
40730;BME280;26418;50.070;8.436;2023-11-19T09:40:23;99614.56;;;12.02;100.00
40730;BME280;26418;50.070;8.436;2023-11-19T09:42:48;99618.09;;;12.11;100.00
40730;BME280;26418;50.070;8.436;2023-11-19T09:45:16;99615.03;;;12.13;100.00
40730;BME280;26418;50.070;8.436;2023-11-19T09:47:44;99620.16;;;12.23;100.00
40730;BME280;26418;50.070;8.436;2023-11-19T09:50:19;99631.31;;;12.30;100.00
40730;BME280;26418;50.070;8.436;2023-11-19T09:52:46;99627.19;;;12.41;100.00
40730;BME280;26418;50.070;8.436;2023-11-19T09:55:12;99632.09;;;12.48;100.00
40730;BME280;26418;50.070;8.436;2023-11-19T09:57:41;99635.47;;;12.54;100.00
40730;BME280;26418;50.070;8.436;2023-11-19T10:00:09;99624.28;;;12.47;100.00
40730;BME280;26418;50.070;8.436;2023-11-19T10:02:36;99633.72;;;12.58;100.00
40730;BME280;26418;50.070;8.436;2023-11-19T10:05:05;99630.19;;;12.66;97.85
40730;BME280;26418;50.070;8.436;2023-11-19T10:07:32;99622.06;;;12.66;99.64
40730;BME280;26418;50.070;8.436;2023-11-19T10:10:02;99619.34;;;12.66;99.51
40730;BME280;26418;50.070;8.436;2023-11-19T10:12:30;99619.19;;;12.63;100.00
40730;BME280;26418;50.070;8.436;2023-11-19T10:14:56;99613.75;;;12.63;98.77
40730;BME280;26418;50.070;8.436;2023-11-19T10:17:33;99611.97;;;12.67;97.66
40730;BME280;26418;50.070;8.436;2023-11-19T10:19:59;99605.25;;;12.73;96.17
40730;BME280;26418;50.070;8.436;2023-11-19T10:22:25;99615.00;;;12.83;93.86
40730;BME280;26418;50.070;8.436;2023-11-19T10:24:52;99603.03;;;12.75;93.87
40730;BME280;26418;50.070;8.436;2023-11-19T10:27:17;99615.59;;;12.88;95.31
40730;BME280;26418;50.070;8.436;2023-11-19T10:29:46;99616.06;;;12.99;94.92
40730;BME280;26418;50.070;8.436;2023-11-19T10:32:13;99625.63;;;13.05;93.03
40730;BME280;26418;50.070;8.436;2023-11-19T10:34:40;99623.41;;;13.08;93.89
40730;BME280;26418;50.070;8.436;2023-11-19T10:37:07;99619.72;;;13.12;92.17
40730;BME280;26418;50.070;8.436;2023-11-19T10:39:52;99611.41;;;13.09;89.61
40730;BME280;26418;50.070;8.436;2023-11-19T10:42:19;99612.69;;;13.11;88.95
40730;BME280;26418;50.070;8.436;2023-11-19T10:44:46;99605.00;;;13.13;85.24
40730;BME280;26418;50.070;8.436;2023-11-19T10:47:13;99590.28;;;13.14;84.45
40730;BME280;26418;50.070;8.436;2023-11-19T10:49:39;99589.84;;;13.12;83.09
40730;BME280;26418;50.070;8.436;2023-11-19T10:52:08;99595.41;;;13.16;83.09
40730;BME280;26418;50.070;8.436;2023-11-19T10:54:34;99603.66;;;13.28;80.99
40730;BME280;26418;50.070;8.436;2023-11-19T10:57:01;99599.81;;;13.29;80.32
40730;BME280;26418;50.070;8.436;2023-11-19T10:59:30;99594.72;;;13.28;78.69
40730;BME280;26418;50.070;8.436;2023-11-19T11:01:57;99594.22;;;13.34;77.88
40730;BME280;26418;50.070;8.436;2023-11-19T11:04:23;99588.44;;;13.36;77.03
40730;BME280;26418;50.070;8.436;2023-11-19T11:06:51;99600.44;;;13.35;76.51
40730;BME280;26418;50.070;8.436;2023-11-19T11:09:17;99592.63;;;13.33;74.24
40730;BME280;26418;50.070;8.436;2023-11-19T11:11:46;99582.91;;;13.24;74.84
40730;BME280;26418;50.070;8.436;2023-11-19T11:14:13;99590.75;;;13.25;76.20
40730;BME280;26418;50.070;8.436;2023-11-19T11:16:46;99575.94;;;13.14;76.57
40730;BME280;26418;50.070;8.436;2023-11-19T11:19:12;99582.47;;;13.21;75.95
40730;BME280;26418;50.070;8.436;2023-11-19T11:21:40;99590.41;;;13.27;74.49
40730;BME280;26418;50.070;8.436;2023-11-19T11:24:21;99578.75;;;13.26;73.93
40730;BME280;26418;50.070;8.436;2023-11-19T11:27:06;99582.06;;;13.32;74.74
40730;BME280;26418;50.070;8.436;2023-11-19T11:35:13;99589.94;;;13.25;76.34
40730;BME280;26418;50.070;8.436;2023-11-19T11:37:54;99591.19;;;13.27;77.67
40730;BME280;26418;50.070;8.436;2023-11-19T11:40:21;99591.50;;;13.34;77.48
40730;BME280;26418;50.070;8.436;2023-11-19T11:42:49;99590.50;;;13.48;76.33
40730;BME280;26418;50.070;8.436;2023-11-19T11:45:18;99587.72;;;13.57;76.31
40730;BME280;26418;50.070;8.436;2023-11-19T11:50:19;99574.97;;;13.78;74.27
40730;BME280;26418;50.070;8.436;2023-11-19T11:56:08;99564.28;;;13.73;74.73
40730;BME280;26418;50.070;8.436;2023-11-19T11:58:21;99579.19;;;13.67;74.17
40730;BME280;26418;50.070;8.436;2023-11-19T12:00:48;99568.69;;;13.57;74.59
40730;BME280;26418;50.070;8.436;2023-11-19T12:03:14;99562.16;;;13.58;74.69
40730;BME280;26418;50.070;8.436;2023-11-19T12:05:45;99558.66;;;13.57;76.08
40730;BME280;26418;50.070;8.436;2023-11-19T12:08:12;99553.81;;;13.63;73.02
40730;BME280;26418;50.070;8.436;2023-11-19T12:10:48;99566.13;;;13.60;73.60
40730;BME280;26418;50.070;8.436;2023-11-19T12:13:15;99554.19;;;13.52;74.34
40730;BME280;26418;50.070;8.436;2023-11-19T12:18:30;99550.09;;;13.46;73.80
40730;BME280;26418;50.070;8.436;2023-11-19T12:20:57;99565.31;;;13.39;74.15
40730;BME280;26418;50.070;8.436;2023-11-19T12:23:26;99570.94;;;13.25;74.53
40730;BME280;26418;50.070;8.436;2023-11-19T12:25:52;99571.63;;;13.13;75.93
40730;BME280;26418;50.070;8.436;2023-11-19T12:28:17;99549.81;;;13.00;75.12
40730;BME280;26418;50.070;8.436;2023-11-19T12:30:44;99543.28;;;12.93;75.33
40730;BME280;26418;50.070;8.436;2023-11-19T12:33:11;99553.13;;;13.06;75.38
40730;BME280;26418;50.070;8.436;2023-11-19T12:35:43;99542.72;;;13.17;74.54
40730;BME280;26418;50.070;8.436;2023-11-19T12:38:22;99531.44;;;13.27;73.73
40730;BME280;26418;50.070;8.436;2023-11-19T12:41:09;99541.03;;;13.33;73.62
40730;BME280;26418;50.070;8.436;2023-11-19T12:43:38;99523.78;;;13.29;73.96
40730;BME280;26418;50.070;8.436;2023-11-19T12:46:23;99519.16;;;13.30;74.15
40730;BME280;26418;50.070;8.436;2023-11-19T12:48:49;99513.72;;;13.30;73.78
40730;BME280;26418;50.070;8.436;2023-11-19T12:51:15;99515.97;;;13.28;74.18
40730;BME280;26418;50.070;8.436;2023-11-19T12:53:51;99520.44;;;13.24;73.32
40730;BME280;26418;50.070;8.436;2023-11-19T12:56:21;99511.53;;;13.23;73.97
40730;BME280;26418;50.070;8.436;2023-11-19T12:58:47;99513.59;;;13.26;73.51
40730;BME280;26418;50.070;8.436;2023-11-19T13:01:19;99518.47;;;13.33;74.13
40730;BME280;26418;50.070;8.436;2023-11-19T13:03:46;99511.19;;;13.25;73.15
40730;BME280;26418;50.070;8.436;2023-11-19T13:06:13;99513.41;;;13.23;73.52
40730;BME280;26418;50.070;8.436;2023-11-19T13:08:42;99511.09;;;13.12;73.94
40730;BME280;26418;50.070;8.436;2023-11-19T13:11:10;99510.97;;;13.09;74.76
40730;BME280;26418;50.070;8.436;2023-11-19T13:13:56;99498.03;;;13.05;75.28